createdAt,value
2023-03-27T00:00:45.010Z,11.90
2023-03-27T00:03:18.199Z,11.98
2023-03-27T00:05:48.927Z,12.05
2023-03-27T00:08:19.821Z,11.52
2023-03-27T00:11:10.350Z,12.18
2023-03-27T00:13:49.571Z,11.73
2023-03-27T00:16:30.020Z,11.98
2023-03-27T00:19:01.262Z,12.57
2023-03-27T00:21:31.518Z,11.52
2023-03-27T00:24:19.890Z,11.45
2023-03-27T00:27:09.161Z,11.52
2023-03-27T00:29:40.188Z,12.48
2023-03-27T00:32:10.539Z,12.48
2023-03-27T00:37:27.141Z,11.07
2023-03-27T00:40:21.982Z,12.15
2023-03-27T00:42:54.498Z,12.45
2023-03-27T00:45:29.055Z,11.40
2023-03-27T00:48:04.040Z,12.35
2023-03-27T00:50:54.189Z,12.95
2023-03-27T00:53:28.825Z,12.27
2023-03-27T00:56:18.914Z,12.25
2023-03-27T00:58:56.348Z,12.23
2023-03-27T01:01:30.513Z,12.27
2023-03-27T01:04:07.212Z,12.20
2023-03-27T01:09:24.529Z,12.65
2023-03-27T01:12:04.808Z,12.43
2023-03-27T01:15:14.377Z,13.43
2023-03-27T01:18:05.148Z,13.40
2023-03-27T01:21:19.025Z,13.37
2023-03-27T01:24:07.888Z,13.15
2023-03-27T01:27:00.552Z,13.35
2023-03-27T01:30:04.335Z,13.68
2023-03-27T01:32:44.387Z,14.10
2023-03-27T01:35:52.324Z,14.55
2023-03-27T01:38:32.148Z,13.13
2023-03-27T01:41:12.400Z,13.13
2023-03-27T01:44:07.853Z,13.75
2023-03-27T01:47:12.643Z,14.13
2023-03-27T01:50:09.686Z,15.15
2023-03-27T01:53:23.789Z,14.63
2023-03-27T01:56:03.466Z,14.50
2023-03-27T01:58:50.505Z,15.13
2023-03-27T02:04:29.851Z,15.77
2023-03-27T02:07:08.619Z,15.32
2023-03-27T02:09:47.531Z,15.93
2023-03-27T02:12:26.866Z,15.68
2023-03-27T02:15:22.421Z,16.58
2023-03-27T02:17:55.223Z,15.30
2023-03-27T02:20:26.737Z,14.75
2023-03-27T02:23:16.662Z,13.88
2023-03-27T02:25:48.717Z,15.07
2023-03-27T02:28:48.856Z,15.35
2023-03-27T02:31:43.900Z,14.55
2023-03-27T02:34:52.884Z,15.15
2023-03-27T02:41:17.996Z,15.32
2023-03-27T02:50:43.103Z,15.15
2023-03-27T02:53:36.482Z,15.43
2023-03-27T02:56:09.925Z,16.17
2023-03-27T02:58:59.964Z,15.80
2023-03-27T03:04:48.742Z,16.67
2023-03-27T03:07:37.380Z,16.80
2023-03-27T03:10:14.471Z,17.10
2023-03-27T03:13:04.042Z,17.67
2023-03-27T03:15:53.192Z,17.60
2023-03-27T03:21:27.895Z,17.85
2023-03-27T03:23:59.579Z,18.35
2023-03-27T03:26:32.629Z,18.88
2023-03-27T03:29:04.004Z,18.40
2023-03-27T03:31:47.071Z,19.00
2023-03-27T03:34:21.535Z,19.90
2023-03-27T03:36:52.876Z,18.88
2023-03-27T03:39:27.863Z,20.52
2023-03-27T03:44:44.551Z,21.33
2023-03-27T03:47:33.851Z,20.25
2023-03-27T03:52:35.865Z,21.05
2023-03-27T03:55:07.221Z,21.40
2023-03-27T04:00:28.919Z,21.33
2023-03-27T04:03:01.414Z,20.73
2023-03-27T04:05:34.774Z,20.13
2023-03-27T04:08:24.115Z,21.83
2023-03-27T04:11:09.467Z,20.42
2023-03-27T04:13:53.775Z,20.90
2023-03-27T04:16:37.275Z,21.65
2023-03-27T04:19:21.307Z,20.85
2023-03-27T04:21:59.349Z,22.13
2023-03-27T04:27:23.970Z,22.13
2023-03-27T04:30:18.455Z,21.38
2023-03-27T04:33:07.873Z,21.75
2023-03-27T04:36:06.461Z,20.95
2023-03-27T04:38:57.651Z,20.58
2023-03-27T04:41:32.881Z,21.20
2023-03-27T04:44:04.802Z,22.33
2023-03-27T04:46:37.141Z,23.95
2023-03-27T04:49:12.491Z,23.10
2023-03-27T04:52:00.764Z,22.85
2023-03-27T04:54:50.276Z,23.58
2023-03-27T05:00:27.018Z,23.20
2023-03-27T05:03:16.420Z,22.92
2023-03-27T05:06:00.886Z,22.52
2023-03-27T05:11:01.994Z,24.25
2023-03-27T05:13:50.811Z,24.10
2023-03-27T05:22:29.260Z,23.60
2023-03-27T05:25:11.202Z,24.07
2023-03-27T05:28:01.652Z,24.23
2023-03-27T05:30:52.790Z,24.10
2023-03-27T05:36:34.000Z,23.92
2023-03-27T05:39:07.904Z,23.25
2023-03-27T05:41:47.212Z,23.10
2023-03-27T05:44:38.799Z,23.77
2023-03-27T05:47:29.669Z,22.17
2023-03-27T05:50:02.308Z,22.35
2023-03-27T05:52:37.430Z,24.05
2023-03-27T05:55:12.150Z,22.63
2023-03-27T05:57:49.613Z,23.40
2023-03-27T06:00:28.526Z,23.80
2023-03-27T06:03:03.446Z,23.75
2023-03-27T06:08:41.878Z,23.98
2023-03-27T06:11:32.774Z,24.00
2023-03-27T06:14:23.339Z,22.85
2023-03-27T06:17:16.483Z,23.60
2023-03-27T06:20:14.962Z,23.55
2023-03-27T06:22:59.804Z,23.70
2023-03-27T06:25:49.300Z,23.42
2023-03-27T06:28:21.838Z,23.65
2023-03-27T06:34:12.960Z,24.00
2023-03-27T06:36:50.501Z,24.13
2023-03-27T06:39:21.662Z,24.85
2023-03-27T06:42:11.211Z,23.08
2023-03-27T06:48:21.282Z,24.52
2023-03-27T06:50:57.708Z,23.63
2023-03-27T06:53:32.669Z,24.73
2023-03-27T06:56:25.032Z,24.95
2023-03-27T06:59:16.654Z,24.73
2023-03-27T07:01:51.747Z,24.90
2023-03-27T07:10:33.890Z,24.80
2023-03-27T07:13:05.061Z,24.33
2023-03-27T07:15:36.738Z,24.38
2023-03-27T07:18:10.119Z,22.25
2023-03-27T07:23:28.758Z,23.17
2023-03-27T07:26:18.961Z,22.77
2023-03-27T07:29:28.118Z,22.90
2023-03-27T07:32:04.303Z,23.77
2023-03-27T07:38:07.292Z,22.50
2023-03-27T07:40:57.604Z,22.58
2023-03-27T07:43:32.450Z,23.30
2023-03-27T07:46:08.605Z,24.02
2023-03-27T07:49:00.415Z,23.10
2023-03-27T07:51:49.833Z,22.58
2023-03-27T07:57:28.061Z,21.90
2023-03-27T08:00:06.627Z,22.73
2023-03-27T08:03:12.180Z,23.27
2023-03-27T08:08:36.303Z,22.45
2023-03-27T08:11:22.951Z,21.98
2023-03-27T08:13:59.561Z,21.67
2023-03-27T08:16:32.228Z,21.65
2023-03-27T08:19:22.263Z,23.02
2023-03-27T08:21:57.871Z,21.00
2023-03-27T08:24:29.625Z,21.25
2023-03-27T08:27:19.392Z,22.23
2023-03-27T08:30:08.937Z,23.17
2023-03-27T08:32:44.750Z,22.02
2023-03-27T08:35:16.629Z,22.27
2023-03-27T08:37:47.977Z,20.90
2023-03-27T08:43:30.814Z,21.67
2023-03-27T08:46:27.050Z,23.30
2023-03-27T08:49:23.161Z,23.10
2023-03-27T08:52:30.061Z,22.20
2023-03-27T08:55:10.249Z,21.30
2023-03-27T08:57:48.086Z,22.48
2023-03-27T09:00:32.070Z,21.60
2023-03-27T09:06:07.196Z,21.83
2023-03-27T09:09:07.673Z,22.50
2023-03-27T09:12:13.600Z,21.95
2023-03-27T09:14:57.656Z,21.20
2023-03-27T09:20:58.330Z,22.48
2023-03-27T09:23:50.128Z,22.35
2023-03-27T09:29:45.325Z,23.38
2023-03-27T09:32:46.136Z,23.45
2023-03-27T09:35:18.226Z,21.60
2023-03-27T09:38:12.373Z,21.83
2023-03-27T09:43:52.334Z,21.38
2023-03-27T09:46:26.298Z,21.33
2023-03-27T09:49:14.254Z,22.02
2023-03-27T09:52:05.759Z,20.65
2023-03-27T09:55:25.846Z,22.60
2023-03-27T09:58:18.098Z,22.50
2023-03-27T10:01:11.563Z,22.13
2023-03-27T10:03:55.521Z,22.27
2023-03-27T10:06:45.570Z,20.35
2023-03-27T10:09:27.052Z,21.98
2023-03-27T10:12:19.748Z,22.50
2023-03-27T10:14:54.897Z,21.33
2023-03-27T10:17:54.600Z,20.35
2023-03-27T10:20:25.747Z,21.38
2023-03-27T10:23:05.644Z,21.35
2023-03-27T10:25:43.420Z,20.42
2023-03-27T10:28:39.822Z,21.73
2023-03-27T10:31:33.757Z,21.48
2023-03-27T10:34:58.285Z,20.52
2023-03-27T10:37:49.816Z,21.35
2023-03-27T10:40:38.686Z,20.88
2023-03-27T10:43:43.073Z,20.00
2023-03-27T10:46:23.373Z,20.45
2023-03-27T10:49:11.655Z,20.40
2023-03-27T10:52:23.539Z,21.30
2023-03-27T10:55:39.158Z,19.42
2023-03-27T10:58:52.664Z,19.73
2023-03-27T11:01:34.780Z,19.55
2023-03-27T11:04:27.111Z,19.25
2023-03-27T11:07:11.293Z,20.33
2023-03-27T11:09:56.094Z,19.08
2023-03-27T11:12:35.554Z,20.80
2023-03-27T11:15:18.303Z,18.80
2023-03-27T11:18:03.480Z,20.20
2023-03-27T11:21:07.822Z,20.38
2023-03-27T11:23:54.540Z,20.15
2023-03-27T11:26:56.496Z,19.98
2023-03-27T11:29:38.329Z,19.85
2023-03-27T11:32:31.012Z,19.42
2023-03-27T11:35:14.182Z,19.27
2023-03-27T11:38:17.435Z,18.20
2023-03-27T11:40:55.019Z,19.15
2023-03-27T11:43:25.784Z,18.30
2023-03-27T11:45:56.203Z,18.60
2023-03-27T11:48:54.335Z,18.38
2023-03-27T11:52:06.582Z,17.90
2023-03-27T11:55:11.278Z,17.02
2023-03-27T11:58:10.886Z,17.85
2023-03-27T12:01:18.203Z,17.13
2023-03-27T12:07:04.888Z,18.60
2023-03-27T12:10:03.519Z,17.38
2023-03-27T12:13:09.239Z,17.23
2023-03-27T12:16:04.264Z,16.98
2023-03-27T12:21:57.434Z,17.23
2023-03-27T12:24:57.422Z,17.40
2023-03-27T12:28:05.307Z,17.73
2023-03-27T12:30:53.579Z,16.02
2023-03-27T12:33:34.098Z,16.73
2023-03-27T12:36:28.290Z,15.82
2023-03-27T12:39:03.170Z,15.32
2023-03-27T12:41:39.561Z,16.42
2023-03-27T12:44:34.837Z,15.10
2023-03-27T12:47:29.224Z,15.77
2023-03-27T12:50:36.996Z,15.82
2023-03-27T12:53:09.824Z,16.17
2023-03-27T12:55:44.881Z,16.40
2023-03-27T12:58:38.917Z,16.17
2023-03-27T13:01:52.431Z,16.02
2023-03-27T13:05:08.682Z,15.82
2023-03-27T13:08:13.472Z,16.83
2023-03-27T13:11:25.993Z,15.60
2023-03-27T13:14:42.267Z,14.88
2023-03-27T13:20:43.348Z,15.88
2023-03-27T13:23:45.175Z,15.85
2023-03-27T13:26:45.658Z,15.23
2023-03-27T13:29:28.471Z,15.13
2023-03-27T13:32:10.306Z,14.57
2023-03-27T13:35:33.418Z,15.48
2023-03-27T13:38:06.673Z,15.98
2023-03-27T13:43:40.091Z,16.15
2023-03-27T13:46:23.728Z,15.68
2023-03-27T14:19:18.168Z,481.85
2023-03-27T14:22:07.427Z,490.13
2023-03-27T14:24:58.328Z,504.75
2023-03-27T14:29:05.762Z,680.30
2023-03-27T14:31:50.346Z,700.38
2023-03-27T14:34:43.779Z,480.98
2023-03-27T14:37:46.082Z,554.80
2023-03-27T14:40:38.542Z,526.45
2023-03-27T14:43:30.697Z,478.48
2023-03-27T14:46:11.728Z,464.33
2023-03-27T14:48:45.936Z,482.88
2023-03-27T14:51:20.750Z,469.27
2023-03-27T22:57:47.066Z,12.80
2023-03-27T23:00:18.192Z,15.63
2023-03-27T23:06:26.690Z,12.75
2023-03-27T23:08:56.953Z,13.23
2023-03-27T23:11:28.361Z,12.90
2023-03-27T23:16:28.371Z,11.90
2023-03-27T23:18:58.695Z,12.20
2023-03-27T23:21:28.915Z,12.25
2023-03-27T23:24:00.530Z,12.50
2023-03-27T23:26:30.945Z,12.60
2023-03-27T23:29:01.295Z,12.37
2023-03-27T23:31:31.799Z,12.87
2023-03-27T23:34:02.092Z,12.63
2023-03-27T23:36:33.101Z,13.57
2023-03-27T23:41:48.572Z,13.55
2023-03-27T23:44:18.789Z,13.18
2023-03-27T23:46:49.124Z,13.57
2023-03-27T23:49:19.411Z,13.50
2023-03-27T23:51:49.893Z,14.27
2023-03-27T23:54:38.890Z,12.95
2023-03-27T23:57:09.398Z,13.68
2023-03-27T23:59:58.051Z,12.73
